Howertons, Virginia
Current Conditions -  °F | °C
As of 10:55 PM on Wednesday 22 Oct 2014 (Local Time) from KXSA Reporting Station
Overcast Overcast  
Wind Chill: 54°   Ceiling: 3300
Heat Index: 54°   Visibility: 10mi
Dew Point: 43°   Wind: 10mph
Humidity: 66%   Direction: 300°WNW
Pressure: 29.94"   Gusts: NA
Location:  37.8346°N, 76.8473°W
Report Text: KXSA 230255Z AUTO 30009KT 280V050 10SM OVC033 12/06 A2994 RMK AO2 LTG DSNT E T01240062
Loading
Personal Weather Stations






























Interactive Weather Map
Tropical Storm Tracking
New forecast layout! Learn more

10-Day Weather Forecast

Advertisements
Track Severe Weather on mobile